Time;durP1;ratioP1;P1;durP2;ratioP2;P2;SDS_P1;SDS_P2;PMS_P1;PMS_P2;Temp;Humidity;BMP_temperature;BMP_pressure;BME280_temperature;BME280_humidity;BME280_pressure;Samples;Min_cycle;Max_cycle;Signal;HPM_P1;HPM_P2
2022/10/11 00:02:34;0.00;0.00;0.62;0.00;0.00;0.62;1.60;1.10;;;28.80;25.80;;;;;;2268769;61;20395;-64
2022/10/11 00:05:19;0.00;0.00;0.62;0.00;0.00;0.62;2.07;1.30;;;28.80;25.80;;;;;;2269578;61;20367;-64
2022/10/11 00:08:04;0.00;0.00;0.62;0.00;0.00;0.62;2.10;1.33;;;28.80;25.80;;;;;;2269286;61;20688;-64
2022/10/11 00:10:57;0.00;0.00;0.62;0.00;0.00;0.62;1.87;1.07;;;28.80;25.90;;;;;;2269407;61;20431;-63
2022/10/11 00:13:42;0.00;0.00;0.62;0.00;0.00;0.62;1.67;1.00;;;28.70;25.80;;;;;;2269734;61;20391;-63
2022/10/11 00:16:27;0.00;0.00;0.62;0.00;0.00;0.62;1.40;0.80;;;28.70;25.90;;;;;;2268710;61;20363;-63
2022/10/11 00:19:13;0.00;0.00;0.62;0.00;0.00;0.62;1.67;1.03;;;28.70;25.90;;;;;;2269180;61;20413;-64
2022/10/11 00:21:58;0.00;0.00;0.62;0.00;0.00;0.62;1.90;1.20;;;28.70;25.90;;;;;;2269319;61;20384;-63
2022/10/11 00:24:44;0.00;0.00;0.62;0.00;0.00;0.62;2.03;1.10;;;28.70;25.90;;;;;;2268859;61;20395;-61
2022/10/11 00:27:29;0.00;0.00;0.62;0.00;0.00;0.62;2.57;1.33;;;28.70;25.90;;;;;;2270231;61;20589;-62
2022/10/11 00:30:14;0.00;0.00;0.62;0.00;0.00;0.62;2.10;1.10;;;28.70;25.90;;;;;;2269592;61;20355;-62
2022/10/11 00:32:58;0.00;0.00;0.62;0.00;0.00;0.62;3.83;1.40;;;28.70;25.80;;;;;;2269871;61;20605;-62
2022/10/11 00:35:44;0.00;0.00;0.62;0.00;0.00;0.62;2.70;1.40;;;28.60;25.70;;;;;;2270491;61;20684;-62
2022/10/11 00:38:29;0.00;0.00;0.62;0.00;0.00;0.62;3.23;1.50;;;28.60;25.60;;;;;;2269347;61;20687;-62
2022/10/11 00:41:15;0.00;0.00;0.62;0.00;0.00;0.62;2.80;1.50;;;28.50;25.40;;;;;;2269757;61;20391;-62
2022/10/11 00:44:14;0.00;0.00;0.62;0.00;0.00;0.62;2.30;1.50;;;28.50;25.40;;;;;;2270417;61;20429;-62
2022/10/11 00:47:06;0.00;0.00;0.62;0.00;0.00;0.62;3.97;2.00;;;28.50;25.30;;;;;;2269427;61;20363;-62
2022/10/11 00:49:56;0.00;0.00;0.62;0.00;0.00;0.62;3.37;1.30;;;28.40;25.20;;;;;;2270264;61;20375;-61
2022/10/11 00:52:48;0.00;0.00;0.62;0.00;0.00;0.62;2.37;1.40;;;28.40;25.20;;;;;;2269356;61;20352;-61
2022/10/11 00:55:43;0.00;0.00;0.62;0.00;0.00;0.62;3.20;1.20;;;28.30;25.10;;;;;;2269965;61;20745;-63
2022/10/11 00:58:29;0.00;0.00;0.62;0.00;0.00;0.62;3.30;1.83;;;28.30;25.10;;;;;;2270159;61;20398;-63
2022/10/11 01:01:13;0.00;0.00;0.62;0.00;0.00;0.62;3.30;1.43;;;28.20;25.00;;;;;;2269025;61;20384;-60
2022/10/11 01:07:45;0.00;0.00;0.62;0.00;0.00;0.62;4.70;2.03;;;28.10;24.90;;;;;;2516764;45;20590;-62
2022/10/11 01:10:30;0.00;0.00;0.62;0.00;0.00;0.62;4.77;1.93;;;28.10;25.00;;;;;;2261950;58;20754;-61
2022/10/11 01:13:28;0.00;0.00;0.62;0.00;0.00;0.62;3.80;2.00;;;28.00;24.90;;;;;;2263929;61;20772;-61
2022/10/11 01:16:21;0.00;0.00;0.62;0.00;0.00;0.62;7.17;1.53;;;28.00;24.90;;;;;;2257577;61;20744;-61
2022/10/11 01:19:51;0.00;0.00;0.62;0.00;0.00;0.62;4.00;1.70;;;27.90;24.80;;;;;;2257793;61;20374;-61
2022/10/11 01:23:40;0.00;0.00;0.62;0.00;0.00;0.62;2.37;1.10;;;27.90;24.90;;;;;;2254326;61;20791;-61
2022/10/11 01:27:15;0.00;0.00;0.62;0.00;0.00;0.62;4.70;1.80;;;27.80;24.90;;;;;;2257421;61;20774;-61
2022/10/11 01:30:17;0.00;0.00;0.62;0.00;0.00;0.62;3.17;1.50;;;27.80;24.90;;;;;;2257393;61;20394;-60
2022/10/11 01:33:17;0.00;0.00;0.62;0.00;0.00;0.62;3.30;1.60;;;27.70;24.90;;;;;;2257545;61;20450;-61
2022/10/11 01:36:13;0.00;0.00;0.62;0.00;0.00;0.62;3.90;1.33;;;27.70;24.90;;;;;;2257247;61;20625;-61
2022/10/11 01:39:04;0.00;0.00;0.62;0.00;0.00;0.62;3.50;1.80;;;27.60;24.90;;;;;;2257072;61;20785;-61
2022/10/11 01:41:53;0.00;0.00;0.62;0.00;0.00;0.62;2.80;1.80;;;27.60;24.90;;;;;;2257680;61;20379;-61
2022/10/11 01:44:41;0.00;0.00;0.62;0.00;0.00;0.62;3.37;1.67;;;27.60;24.90;;;;;;2257740;61;20351;-61
2022/10/11 01:47:28;0.00;0.00;0.62;0.00;0.00;0.62;4.13;1.57;;;27.50;24.90;;;;;;2256927;61;20394;-62
2022/10/11 01:50:37;0.00;0.00;0.62;0.00;0.00;0.62;4.77;1.90;;;27.50;24.80;;;;;;2257966;61;20382;-61
2022/10/11 01:53:45;0.00;0.00;0.62;0.00;0.00;0.62;5.13;2.17;;;27.50;24.80;;;;;;2257447;61;20425;-60
2022/10/11 01:56:51;0.00;0.00;0.62;0.00;0.00;0.62;2.50;1.20;;;27.50;24.90;;;;;;2257326;61;20355;-63
2022/10/11 01:59:49;0.00;0.00;0.62;0.00;0.00;0.62;5.30;1.50;;;27.40;24.80;;;;;;2257452;61;20418;-61
2022/10/11 02:02:52;0.00;0.00;0.62;0.00;0.00;0.62;4.33;1.50;;;27.40;24.80;;;;;;2257512;61;20382;-61
2022/10/11 02:05:47;0.00;0.00;0.62;0.00;0.00;0.62;3.10;1.30;;;27.30;24.80;;;;;;2257290;61;20367;-62
2022/10/11 02:08:42;0.00;0.00;0.62;0.00;0.00;0.62;2.70;1.40;;;27.30;24.80;;;;;;2256953;61;20375;-61
2022/10/11 02:11:31;0.00;0.00;0.62;0.00;0.00;0.62;4.00;1.60;;;27.30;24.80;;;;;;2256745;61;20422;-62
2022/10/11 02:14:21;0.00;0.00;0.62;0.00;0.00;0.62;4.50;1.73;;;27.20;24.80;;;;;;2255807;61;20374;-62
2022/10/11 02:17:11;0.00;0.00;0.62;0.00;0.00;0.62;4.60;2.37;;;27.20;24.80;;;;;;2255082;61;20402;-61
2022/10/11 02:20:02;0.00;0.00;0.62;0.00;0.00;0.62;3.60;1.40;;;27.20;24.80;;;;;;2255302;61;20469;-61
2022/10/11 02:22:52;0.00;0.00;0.62;0.00;0.00;0.62;3.77;1.80;;;27.10;24.70;;;;;;2255117;61;20586;-62
2022/10/11 02:25:37;0.00;0.00;0.62;0.00;0.00;0.62;2.93;1.20;;;27.10;24.70;;;;;;2255069;61;20421;-61
2022/10/11 02:28:28;0.00;0.00;0.62;0.00;0.00;0.62;2.30;1.20;;;27.10;24.80;;;;;;2252212;61;20674;-61
2022/10/11 02:31:17;0.00;0.00;0.62;0.00;0.00;0.62;3.30;1.60;;;27.00;24.70;;;;;;2255533;61;20475;-61
2022/10/11 02:34:10;0.00;0.00;0.62;0.00;0.00;0.62;3.80;2.17;;;27.00;24.80;;;;;;2255013;61;20366;-61
2022/10/11 02:37:06;0.00;0.00;0.62;0.00;0.00;0.62;2.97;1.60;;;27.00;24.80;;;;;;2255644;61;20403;-62
2022/10/11 02:39:57;0.00;0.00;0.62;0.00;0.00;0.62;4.70;2.23;;;27.00;24.80;;;;;;2255023;61;20470;-62
2022/10/11 02:42:50;0.00;0.00;0.62;0.00;0.00;0.62;2.70;1.60;;;26.90;24.80;;;;;;2255263;61;20390;-61
2022/10/11 02:45:39;0.00;0.00;0.62;0.00;0.00;0.62;5.10;1.67;;;26.90;25.40;;;;;;2255010;61;20688;-62
2022/10/11 02:48:28;0.00;0.00;0.62;0.00;0.00;0.62;4.93;1.70;;;26.90;24.80;;;;;;2254931;61;20379;-62
2022/10/11 02:51:14;0.00;0.00;0.62;0.00;0.00;0.62;3.27;1.90;;;26.80;24.80;;;;;;2255514;61;20355;-62
2022/10/11 02:54:01;0.00;0.00;0.62;0.00;0.00;0.62;3.70;1.67;;;26.80;24.90;;;;;;2254829;61;20715;-62
2022/10/11 02:56:46;0.00;0.00;0.62;0.00;0.00;0.62;4.50;1.73;;;26.80;24.90;;;;;;2255584;61;20617;-62
2022/10/11 02:59:31;0.00;0.00;0.62;0.00;0.00;0.62;2.70;1.40;;;26.80;24.90;;;;;;2254869;61;20378;-62
2022/10/11 03:02:16;0.00;0.00;0.62;0.00;0.00;0.62;4.00;1.40;;;26.80;24.90;;;;;;2254879;61;20382;-61
2022/10/11 03:05:01;0.00;0.00;0.62;0.00;0.00;0.62;3.03;1.50;;;26.70;24.90;;;;;;2255515;61;20710;-61
2022/10/11 03:07:46;0.00;0.00;0.62;0.00;0.00;0.62;5.20;1.53;;;26.70;24.90;;;;;;2255230;61;20355;-62
2022/10/11 03:10:37;0.00;0.00;0.62;0.00;0.00;0.62;2.13;1.20;;;26.70;25.00;;;;;;2254745;61;20374;-61
2022/10/11 03:13:23;0.00;0.00;0.62;0.00;0.00;0.62;2.27;1.10;;;26.70;25.00;;;;;;2255338;61;20622;-62
2022/10/11 03:16:09;0.00;0.00;0.62;0.00;0.00;0.62;3.23;1.40;;;26.70;25.10;;;;;;2254629;61;20374;-61
2022/10/11 03:18:56;0.00;0.00;0.62;0.00;0.00;0.62;3.73;1.37;;;26.60;25.00;;;;;;2255535;61;20398;-61
2022/10/11 03:21:42;0.00;0.00;0.62;0.00;0.00;0.62;3.27;1.60;;;26.60;25.00;;;;;;2254418;61;20386;-62
2022/10/11 03:24:29;0.00;0.00;0.62;0.00;0.00;0.62;2.73;1.50;;;26.60;25.10;;;;;;2255345;61;20366;-61
2022/10/11 03:27:17;0.00;0.00;0.62;0.00;0.00;0.62;3.10;1.27;;;26.60;25.10;;;;;;2255072;61;20366;-61
2022/10/11 03:30:10;0.00;0.00;0.62;0.00;0.00;0.62;2.83;1.30;;;26.60;25.10;;;;;;2254833;61;20391;-61
2022/10/11 03:32:55;0.00;0.00;0.62;0.00;0.00;0.62;3.00;1.43;;;26.60;25.10;;;;;;2254965;61;20359;-61
2022/10/11 03:35:44;0.00;0.00;0.62;0.00;0.00;0.62;4.60;1.57;;;26.60;25.20;;;;;;2255111;61;20420;-60
2022/10/11 03:38:31;0.00;0.00;0.62;0.00;0.00;0.62;3.30;1.50;;;26.60;25.20;;;;;;2254333;61;20613;-61
2022/10/11 03:41:17;0.00;0.00;0.62;0.00;0.00;0.62;3.97;1.83;;;26.50;25.70;;;;;;2255073;61;20386;-61
2022/10/11 03:44:03;0.00;0.00;0.62;0.00;0.00;0.62;3.40;1.50;;;26.50;25.20;;;;;;2257401;61;20354;-60
2022/10/11 03:46:50;0.00;0.00;0.62;0.00;0.00;0.62;3.40;1.50;;;26.50;25.20;;;;;;2254857;61;20393;-60
2022/10/11 03:49:36;0.00;0.00;0.62;0.00;0.00;0.62;2.97;1.53;;;26.50;25.20;;;;;;2252234;61;20429;-60
2022/10/11 03:52:25;0.00;0.00;0.62;0.00;0.00;0.62;2.57;1.30;;;26.50;25.20;;;;;;2255058;61;20423;-61
2022/10/11 03:55:10;0.00;0.00;0.62;0.00;0.00;0.62;2.90;1.43;;;26.40;25.10;;;;;;2255251;61;20397;-61
2022/10/11 03:57:55;0.00;0.00;0.62;0.00;0.00;0.62;2.27;1.37;;;26.50;25.20;;;;;;2257362;61;20362;-60
2022/10/11 04:00:42;0.00;0.00;0.62;0.00;0.00;0.62;3.33;1.67;;;26.40;25.20;;;;;;2257222;61;20386;-60
2022/10/11 04:03:28;0.00;0.00;0.62;0.00;0.00;0.62;3.37;1.10;;;26.40;25.20;;;;;;2256192;61;20453;-61
2022/10/11 04:06:16;0.00;0.00;0.62;0.00;0.00;0.62;2.07;1.20;;;26.40;25.20;;;;;;2257963;61;20359;-63
2022/10/11 04:09:04;0.00;0.00;0.62;0.00;0.00;0.62;3.80;1.53;;;26.40;25.20;;;;;;2255846;61;20789;-62
2022/10/11 04:11:49;0.00;0.00;0.62;0.00;0.00;0.62;3.33;1.47;;;26.30;25.20;;;;;;2256029;61;20426;-60
2022/10/11 04:14:35;0.00;0.00;0.62;0.00;0.00;0.62;2.60;1.50;;;26.30;25.20;;;;;;2255688;61;20402;-60
2022/10/11 04:17:22;0.00;0.00;0.62;0.00;0.00;0.62;5.43;1.50;;;26.30;25.20;;;;;;2255760;61;20354;-63
2022/10/11 04:20:09;0.00;0.00;0.62;0.00;0.00;0.62;2.97;1.40;;;26.30;25.20;;;;;;2255827;61;20398;-61
2022/10/11 04:22:55;0.00;0.00;0.62;0.00;0.00;0.62;2.40;1.40;;;26.30;25.20;;;;;;2257731;61;20387;-63
2022/10/11 04:25:47;0.00;0.00;0.62;0.00;0.00;0.62;2.80;1.40;;;26.30;25.20;;;;;;2256144;61;20390;-62
2022/10/11 04:28:33;0.00;0.00;0.62;0.00;0.00;0.62;3.30;1.70;;;26.30;25.20;;;;;;2255261;61;20378;-63
2022/10/11 04:31:22;0.00;0.00;0.62;0.00;0.00;0.62;3.10;1.47;;;26.30;25.20;;;;;;2256046;61;20401;-62
2022/10/11 04:34:09;0.00;0.00;0.62;0.00;0.00;0.62;3.50;1.53;;;26.30;25.20;;;;;;2255749;61;20593;-62
2022/10/11 04:36:54;0.00;0.00;0.62;0.00;0.00;0.62;3.10;1.40;;;26.20;25.10;;;;;;2254963;61;20363;-62
2022/10/11 04:39:42;0.00;0.00;0.62;0.00;0.00;0.62;2.93;1.30;;;26.20;25.10;;;;;;2255515;61;20463;-62
2022/10/11 04:42:29;0.00;0.00;0.62;0.00;0.00;0.62;3.80;2.00;;;26.20;25.10;;;;;;2255647;61;20382;-62
2022/10/11 04:45:14;0.00;0.00;0.62;0.00;0.00;0.62;3.50;1.37;;;26.20;25.10;;;;;;2255637;61;20586;-62
2022/10/11 04:47:59;0.00;0.00;0.62;0.00;0.00;0.62;3.30;1.60;;;26.20;25.20;;;;;;2256020;61;20383;-62
2022/10/11 04:50:45;0.00;0.00;0.62;0.00;0.00;0.62;4.00;1.80;;;26.20;25.20;;;;;;2255498;61;20619;-62
2022/10/11 04:53:34;0.00;0.00;0.62;0.00;0.00;0.62;2.97;1.30;;;26.10;25.10;;;;;;2255560;61;20359;-62
2022/10/11 04:56:23;0.00;0.00;0.62;0.00;0.00;0.62;5.10;1.20;;;26.20;25.20;;;;;;2255103;61;20358;-62
2022/10/11 04:59:09;0.00;0.00;0.62;0.00;0.00;0.62;3.93;1.70;;;26.10;25.10;;;;;;2255484;61;20410;-62
2022/10/11 05:01:54;0.00;0.00;0.62;0.00;0.00;0.62;2.03;1.30;;;26.10;25.20;;;;;;2255406;61;20386;-62
2022/10/11 05:04:42;0.00;0.00;0.62;0.00;0.00;0.62;2.80;1.30;;;26.10;25.20;;;;;;2255684;61;20359;-62
2022/10/11 05:07:29;0.00;0.00;0.62;0.00;0.00;0.62;3.00;1.47;;;26.00;25.10;;;;;;2254927;61;20359;-63
2022/10/11 05:10:16;0.00;0.00;0.62;0.00;0.00;0.62;2.10;1.30;;;26.00;25.10;;;;;;2255932;61;20690;-62
2022/10/11 05:13:02;0.00;0.00;0.62;0.00;0.00;0.62;3.00;1.53;;;26.00;25.10;;;;;;2255241;61;20439;-63
2022/10/11 05:15:49;0.00;0.00;0.62;0.00;0.00;0.62;4.10;1.60;;;26.00;25.10;;;;;;2255258;61;20374;-62
2022/10/11 05:18:37;0.00;0.00;0.62;0.00;0.00;0.62;3.37;1.53;;;26.00;25.10;;;;;;2255656;61;20741;-62
2022/10/11 05:21:26;0.00;0.00;0.62;0.00;0.00;0.62;3.30;1.80;;;26.00;25.10;;;;;;2255156;61;20359;-62
2022/10/11 05:24:12;0.00;0.00;0.62;0.00;0.00;0.62;2.13;1.50;;;26.00;25.20;;;;;;2255854;61;20363;-61
2022/10/11 05:26:57;0.00;0.00;0.62;0.00;0.00;0.62;2.20;1.33;;;26.00;25.20;;;;;;2255318;61;20370;-61
2022/10/11 05:29:47;0.00;0.00;0.62;0.00;0.00;0.62;3.33;1.70;;;26.00;25.20;;;;;;2255626;61;20398;-62
2022/10/11 05:32:32;0.00;0.00;0.62;0.00;0.00;0.62;3.80;1.60;;;26.00;25.20;;;;;;2255487;61;20771;-62
2022/10/11 05:35:21;0.00;0.00;0.62;0.00;0.00;0.62;2.93;1.70;;;25.90;25.10;;;;;;2255294;61;20359;-62
2022/10/11 05:38:06;0.00;0.00;0.62;0.00;0.00;0.62;2.70;1.70;;;25.90;25.10;;;;;;2255585;61;20362;-62
2022/10/11 05:40:53;0.00;0.00;0.62;0.00;0.00;0.62;4.27;1.53;;;25.90;25.10;;;;;;2255312;61;20460;-62
2022/10/11 05:43:39;0.00;0.00;0.62;0.00;0.00;0.62;3.20;1.73;;;25.90;25.10;;;;;;2254741;61;20770;-65
2022/10/11 05:46:25;0.00;0.00;0.62;0.00;0.00;0.62;3.23;1.63;;;25.90;25.20;;;;;;2255221;61;20425;-67
2022/10/11 05:49:11;0.00;0.00;0.62;0.00;0.00;0.62;3.53;2.00;;;25.80;25.10;;;;;;2255282;61;20437;-66
2022/10/11 05:51:58;0.00;0.00;0.62;0.00;0.00;0.62;4.70;1.63;;;25.80;25.10;;;;;;2255055;61;20573;-64
2022/10/11 05:54:43;0.00;0.00;0.62;0.00;0.00;0.62;3.83;1.60;;;25.80;25.20;;;;;;2255981;61;20741;-66
2022/10/11 05:57:32;0.00;0.00;0.62;0.00;0.00;0.62;6.00;2.00;;;25.80;25.20;;;;;;2255042;61;20767;-68
2022/10/11 06:00:17;0.00;0.00;0.62;0.00;0.00;0.62;3.90;1.63;;;25.80;25.20;;;;;;2255375;61;20498;-65
2022/10/11 06:03:07;0.00;0.00;0.62;0.00;0.00;0.62;3.53;2.17;;;25.80;25.20;;;;;;2255474;61;20600;-65
2022/10/11 06:05:52;0.00;0.00;0.62;0.00;0.00;0.62;3.30;1.53;;;25.80;25.30;;;;;;2255589;61;20735;-66
2022/10/11 06:08:39;0.00;0.00;0.62;0.00;0.00;0.62;2.90;1.87;;;25.80;25.30;;;;;;2252186;61;20449;-69
2022/10/11 06:11:27;0.00;0.00;0.62;0.00;0.00;0.62;4.40;1.60;;;25.80;25.30;;;;;;2368320;53;20378;-64
2022/10/11 06:14:15;0.00;0.00;0.62;0.00;0.00;0.62;3.33;1.80;;;25.70;25.20;;;;;;2256504;61;20715;-65
2022/10/11 06:17:00;0.00;0.00;0.62;0.00;0.00;0.62;2.50;1.33;;;25.80;25.30;;;;;;2255377;61;20551;-67
2022/10/11 06:19:47;0.00;0.00;0.62;0.00;0.00;0.62;3.03;1.50;;;25.70;25.30;;;;;;2255450;61;20379;-68
2022/10/11 06:22:34;0.00;0.00;0.62;0.00;0.00;0.62;2.97;1.23;;;25.70;25.30;;;;;;2257451;61;20383;-66
2022/10/11 06:25:20;0.00;0.00;0.62;0.00;0.00;0.62;3.47;2.00;;;25.70;25.40;;;;;;2257068;61;20604;-64
2022/10/11 06:28:06;0.00;0.00;0.62;0.00;0.00;0.62;3.20;1.47;;;25.80;25.40;;;;;;2257707;61;20355;-62
2022/10/11 06:30:55;0.00;0.00;0.62;0.00;0.00;0.62;2.57;1.57;;;25.70;25.40;;;;;;2257621;61;20355;-62
2022/10/11 06:33:40;0.00;0.00;0.62;0.00;0.00;0.62;3.60;1.57;;;25.70;25.40;;;;;;2256668;61;20359;-65
2022/10/11 06:36:26;0.00;0.00;0.62;0.00;0.00;0.62;3.10;1.87;;;25.70;25.40;;;;;;2255752;61;20401;-61
2022/10/11 06:39:23;0.00;0.00;0.62;0.00;0.00;0.62;2.77;1.60;;;25.70;25.40;;;;;;2491448;53;20386;-64
2022/10/11 06:42:10;0.00;0.00;0.62;0.00;0.00;0.62;4.30;1.77;;;25.70;25.40;;;;;;2257111;61;20386;-67
2022/10/11 06:44:58;0.00;0.00;0.62;0.00;0.00;0.62;4.30;1.60;;;25.70;25.40;;;;;;2258112;61;20354;-66
2022/10/11 06:51:45;0.00;0.00;0.62;0.00;0.00;0.62;2.37;1.43;;;25.70;25.50;;;;;;2380708;55;20342;-63
2022/10/11 06:56:34;0.00;0.00;0.62;0.00;0.00;0.62;2.23;1.33;;;25.70;25.50;;;;;;2269871;61;20714;-66
2022/10/11 06:59:17;0.00;0.00;0.62;0.00;0.00;0.62;2.70;1.80;;;25.70;25.50;;;;;;2270132;61;20337;-67
2022/10/11 07:02:03;0.00;0.00;0.62;0.00;0.00;0.62;5.00;2.30;;;25.70;25.60;;;;;;2268668;61;20831;-65
2022/10/11 07:04:50;0.00;0.00;0.62;0.00;0.00;0.62;2.37;1.50;;;25.70;25.60;;;;;;2269812;61;20355;-66
2022/10/11 07:07:35;0.00;0.00;0.62;0.00;0.00;0.62;3.50;1.70;;;25.70;25.60;;;;;;2271381;61;20368;-66
2022/10/11 07:10:21;0.00;0.00;0.62;0.00;0.00;0.62;2.20;1.33;;;25.70;25.60;;;;;;2269508;61;20368;-67
2022/10/11 07:13:06;0.00;0.00;0.62;0.00;0.00;0.62;2.50;1.30;;;25.70;25.60;;;;;;2269729;61;20372;-69
2022/10/11 07:15:52;0.00;0.00;0.62;0.00;0.00;0.62;3.00;1.80;;;25.70;25.60;;;;;;2268933;61;20627;-69
2022/10/11 07:18:41;0.00;0.00;0.62;0.00;0.00;0.62;4.93;2.00;;;25.80;25.70;;;;;;2269377;61;20352;-62
2022/10/11 07:21:29;0.00;0.00;0.62;0.00;0.00;0.62;3.63;1.70;;;25.70;25.60;;;;;;2269761;61;20364;-66
2022/10/11 07:24:17;0.00;0.00;0.62;0.00;0.00;0.62;3.10;1.73;;;25.70;26.10;;;;;;2268746;61;20392;-62
2022/10/11 07:27:05;0.00;0.00;0.62;0.00;0.00;0.62;4.13;2.00;;;25.70;25.60;;;;;;2269877;61;20390;-67
2022/10/11 07:29:56;0.00;0.00;0.62;0.00;0.00;0.62;3.67;1.97;;;25.80;25.60;;;;;;2269522;57;20618;-69
2022/10/11 07:32:44;0.00;0.00;0.62;0.00;0.00;0.62;3.60;1.73;;;25.70;25.70;;;;;;2264655;61;20442;-68
2022/10/11 07:35:30;0.00;0.00;0.62;0.00;0.00;0.62;3.20;1.40;;;25.80;25.70;;;;;;2265623;61;20608;-62
2022/10/11 07:38:17;0.00;0.00;0.62;0.00;0.00;0.62;3.27;2.00;;;25.80;25.70;;;;;;2264818;61;20411;-62
2022/10/11 07:41:28;0.00;0.00;0.62;0.00;0.00;0.62;3.70;1.93;;;25.80;25.70;;;;;;2267446;61;20408;-62
2022/10/11 07:44:14;0.00;0.00;0.62;0.00;0.00;0.62;5.10;1.53;;;25.80;25.70;;;;;;2267363;61;20376;-62
2022/10/11 07:47:00;0.00;0.00;0.62;0.00;0.00;0.62;3.17;1.57;;;25.80;25.60;;;;;;2265358;61;20353;-66
2022/10/11 07:49:45;0.00;0.00;0.62;0.00;0.00;0.62;2.80;1.47;;;25.80;25.60;;;;;;2265435;61;20388;-63
2022/10/11 07:52:30;0.00;0.00;0.62;0.00;0.00;0.62;3.30;1.43;;;25.80;25.60;;;;;;2264691;61;20373;-68
2022/10/11 07:55:17;0.00;0.00;0.62;0.00;0.00;0.62;3.30;1.43;;;25.80;25.60;;;;;;2265659;61;20562;-67
2022/10/11 07:58:03;0.00;0.00;0.62;0.00;0.00;0.62;2.07;1.10;;;25.80;25.70;;;;;;2265225;61;20456;-62
2022/10/11 08:00:53;0.00;0.00;0.62;0.00;0.00;0.62;2.53;1.37;;;25.80;25.70;;;;;;2264277;61;20399;-65
2022/10/11 08:03:43;0.00;0.00;0.62;0.00;0.00;0.62;2.63;1.50;;;25.80;25.70;;;;;;2265460;61;20405;-61
2022/10/11 08:06:31;0.00;0.00;0.62;0.00;0.00;0.62;3.83;1.67;;;25.80;25.70;;;;;;2265062;61;20720;-62
2022/10/11 08:09:17;0.00;0.00;0.62;0.00;0.00;0.62;3.27;1.10;;;25.80;25.70;;;;;;2265429;61;20583;-62
2022/10/11 08:12:04;0.00;0.00;0.62;0.00;0.00;0.62;2.87;1.70;;;25.90;25.80;;;;;;2267844;61;20357;-67
2022/10/11 08:14:53;0.00;0.00;0.62;0.00;0.00;0.62;2.67;1.40;;;25.90;25.80;;;;;;2264979;61;20350;-65
2022/10/11 08:17:43;0.00;0.00;0.62;0.00;0.00;0.62;2.83;1.23;;;25.90;25.80;;;;;;2265251;61;20387;-67
2022/10/11 08:20:54;0.00;0.00;0.62;0.00;0.00;0.62;2.03;1.17;;;26.00;25.90;;;;;;2265572;61;20361;-66
2022/10/11 08:23:40;0.00;0.00;0.62;0.00;0.00;0.62;2.80;1.50;;;26.00;25.90;;;;;;2268628;61;20665;-63
2022/10/11 08:26:26;0.00;0.00;0.62;0.00;0.00;0.62;2.83;1.50;;;26.00;25.90;;;;;;2271160;61;20430;-65
2022/10/11 08:29:13;0.00;0.00;0.62;0.00;0.00;0.62;3.70;1.83;;;26.00;25.90;;;;;;2268448;61;20352;-68
2022/10/11 08:31:59;0.00;0.00;0.62;0.00;0.00;0.62;2.30;1.23;;;26.10;26.00;;;;;;2268876;61;20355;-65
2022/10/11 08:35:40;0.00;0.00;0.62;0.00;0.00;0.62;2.00;1.50;;;26.10;26.00;;;;;;2269548;61;20356;-69
2022/10/11 08:38:31;0.00;0.00;0.62;0.00;0.00;0.62;1.97;1.40;;;26.10;26.00;;;;;;2266036;61;20372;-68
2022/10/11 08:41:39;0.00;0.00;0.62;0.00;0.00;0.62;1.80;1.20;;;26.20;26.10;;;;;;2265239;61;20719;-64
2022/10/11 08:44:38;0.00;0.00;0.62;0.00;0.00;0.62;1.90;1.10;;;26.20;26.10;;;;;;2264849;61;20361;-64
2022/10/11 08:47:30;0.00;0.00;0.62;0.00;0.00;0.62;2.00;1.20;;;26.20;26.20;;;;;;2265889;61;20488;-64
2022/10/11 08:50:21;0.00;0.00;0.62;0.00;0.00;0.62;2.37;1.30;;;26.20;26.20;;;;;;2266420;61;20392;-62
2022/10/11 08:53:16;0.00;0.00;0.62;0.00;0.00;0.62;2.97;1.30;;;26.30;26.30;;;;;;2263710;61;20380;-65
2022/10/11 08:56:03;0.00;0.00;0.62;0.00;0.00;0.62;2.17;1.40;;;26.30;26.40;;;;;;2266218;61;20452;-67
2022/10/11 08:58:57;0.00;0.00;0.62;0.00;0.00;0.62;2.90;1.27;;;26.30;26.30;;;;;;2263181;61;20476;-65
2022/10/11 09:01:52;0.00;0.00;0.62;0.00;0.00;0.62;1.90;0.90;;;26.40;26.40;;;;;;2613014;45;20384;-66
2022/10/11 09:04:38;0.00;0.00;0.62;0.00;0.00;0.62;2.00;1.10;;;26.40;26.40;;;;;;2269704;61;20689;-67
2022/10/11 09:07:41;0.00;0.00;0.62;0.00;0.00;0.62;2.17;1.33;;;26.50;26.40;;;;;;2269301;61;20349;-63
2022/10/11 09:10:51;0.00;0.00;0.62;0.00;0.00;0.62;2.37;1.37;;;26.50;26.50;;;;;;2269984;61;20389;-64
2022/10/11 09:14:02;0.00;0.00;0.62;0.00;0.00;0.62;1.97;1.00;;;26.50;26.50;;;;;;2269294;61;20757;-67
2022/10/11 09:17:02;0.00;0.00;0.62;0.00;0.00;0.62;2.00;1.47;;;26.60;26.50;;;;;;2265869;61;20603;-63
2022/10/11 09:20:21;0.00;0.00;0.62;0.00;0.00;0.62;2.10;1.17;;;26.60;26.50;;;;;;2265753;61;20384;-65
2022/10/11 09:23:22;0.00;0.00;0.62;0.00;0.00;0.62;2.27;1.40;;;26.60;26.50;;;;;;2265642;61;20388;-65
2022/10/11 09:26:16;0.00;0.00;0.62;0.00;0.00;0.62;2.43;1.17;;;26.70;26.60;;;;;;2265609;61;20415;-65
2022/10/11 09:29:09;0.00;0.00;0.62;0.00;0.00;0.62;3.77;2.03;;;26.70;26.60;;;;;;2263779;61;20365;-61
2022/10/11 09:31:59;0.00;0.00;0.62;0.00;0.00;0.62;3.20;2.47;;;26.80;26.60;;;;;;2265602;61;20400;-62
2022/10/11 09:34:45;0.00;0.00;0.62;0.00;0.00;0.62;4.47;2.50;;;26.80;26.50;;;;;;2266159;61;20577;-67
2022/10/11 09:37:54;0.00;0.00;0.62;0.00;0.00;0.62;3.17;2.00;;;26.80;26.50;;;;;;2265672;61;20412;-66
2022/10/11 09:41:15;0.00;0.00;0.62;0.00;0.00;0.62;3.00;2.40;;;26.90;26.50;;;;;;2266040;61;20393;-64
2022/10/11 09:44:10;0.00;0.00;0.62;0.00;0.00;0.62;2.73;2.17;;;26.90;26.50;;;;;;2267611;61;20432;-63
2022/10/11 09:47:27;0.00;0.00;0.62;0.00;0.00;0.62;3.27;2.33;;;26.90;26.50;;;;;;2266314;61;20558;-64
2022/10/11 09:50:17;0.00;0.00;0.62;0.00;0.00;0.62;3.00;2.23;;;27.00;26.50;;;;;;2267795;61;20592;-64
2022/10/11 09:53:07;0.00;0.00;0.62;0.00;0.00;0.62;3.57;2.40;;;27.00;26.50;;;;;;2265347;61;20392;-64
2022/10/11 09:56:03;0.00;0.00;0.62;0.00;0.00;0.62;3.27;2.60;;;27.00;26.50;;;;;;2268405;61;20384;-68
2022/10/11 09:59:04;0.00;0.00;0.62;0.00;0.00;0.62;3.70;2.90;;;27.10;26.60;;;;;;2265073;61;20713;-65
2022/10/11 10:02:17;0.00;0.00;0.62;0.00;0.00;0.62;2.50;1.95;;;27.10;26.60;;;;;;2265948;61;20404;-65
2022/10/11 10:05:18;0.00;0.00;0.62;0.00;0.00;0.62;3.37;2.30;;;27.10;26.60;;;;;;2264717;61;20369;-66
2022/10/11 10:08:25;0.00;0.00;0.62;0.00;0.00;0.62;3.50;2.60;;;27.20;26.70;;;;;;2264502;61;20365;-63
2022/10/11 10:11:12;0.00;0.00;0.62;0.00;0.00;0.62;3.13;2.17;;;27.20;26.60;;;;;;2266127;61;20354;-67
2022/10/11 10:13:57;0.00;0.00;0.62;0.00;0.00;0.62;2.73;2.30;;;27.30;26.70;;;;;;2264922;61;20408;-66
2022/10/11 10:16:47;0.00;0.00;0.62;0.00;0.00;0.62;3.00;2.40;;;27.30;26.70;;;;;;2265718;61;20564;-65
2022/10/11 10:19:41;0.00;0.00;0.62;0.00;0.00;0.62;4.20;2.23;;;27.30;26.60;;;;;;2267578;61;20353;-64
2022/10/11 10:22:35;0.00;0.00;0.62;0.00;0.00;0.62;4.60;2.47;;;27.40;26.70;;;;;;2297387;58;20383;-62
2022/10/11 10:25:33;0.00;0.00;0.62;0.00;0.00;0.62;4.00;2.70;;;27.40;26.70;;;;;;2270116;61;20364;-62
2022/10/11 10:28:22;0.00;0.00;0.62;0.00;0.00;0.62;3.17;2.33;;;27.40;26.60;;;;;;2269219;61;20440;-61
2022/10/11 10:31:21;0.00;0.00;0.62;0.00;0.00;0.62;3.97;2.67;;;27.50;26.70;;;;;;2272218;61;20395;-61
2022/10/11 10:34:16;0.00;0.00;0.62;0.00;0.00;0.62;4.20;3.40;;;27.50;26.60;;;;;;2269555;61;20369;-61
2022/10/11 10:37:35;0.00;0.00;0.62;0.00;0.00;0.62;3.83;3.10;;;27.60;26.60;;;;;;2269307;61;20363;-66
2022/10/11 10:43:56;0.00;0.00;0.62;0.00;0.00;0.62;6.20;2.73;;;27.60;26.60;;;;;;2268944;61;20387;-61
2022/10/11 10:46:56;0.00;0.00;0.62;0.00;0.00;0.62;2.87;2.47;;;27.70;26.60;;;;;;2272423;61;20352;-62
2022/10/11 10:49:51;0.00;0.00;0.62;0.00;0.00;0.62;4.33;2.87;;;27.70;26.60;;;;;;2269300;61;20357;-61
2022/10/11 10:53:02;0.00;0.00;0.62;0.00;0.00;0.62;3.97;2.83;;;27.80;26.60;;;;;;2269668;61;20376;-61
2022/10/11 10:56:00;0.00;0.00;0.62;0.00;0.00;0.62;4.33;2.90;;;27.80;27.10;;;;;;2269884;61;20728;-61
2022/10/11 10:59:09;0.00;0.00;0.62;0.00;0.00;0.62;3.53;2.70;;;27.80;26.50;;;;;;2271512;61;20356;-62
2022/10/11 11:02:01;0.00;0.00;0.62;0.00;0.00;0.62;3.63;2.70;;;27.80;26.50;;;;;;2269340;61;20485;-61
2022/10/11 11:04:58;0.00;0.00;0.62;0.00;0.00;0.62;4.20;2.40;;;27.90;26.50;;;;;;2269296;61;20430;-62
2022/10/11 11:07:54;0.00;0.00;0.62;0.00;0.00;0.62;4.17;2.80;;;28.00;26.50;;;;;;2269791;61;20779;-61
2022/10/11 11:10:49;0.00;0.00;0.62;0.00;0.00;0.62;2.93;2.40;;;28.00;26.50;;;;;;2269402;61;20360;-62
2022/10/11 11:13:44;0.00;0.00;0.62;0.00;0.00;0.62;3.40;2.40;;;28.00;26.40;;;;;;2268991;61;20774;-62
2022/10/11 11:16:40;0.00;0.00;0.62;0.00;0.00;0.62;3.33;2.70;;;28.00;26.40;;;;;;2269866;61;20364;-61
2022/10/11 11:19:47;0.00;0.00;0.62;0.00;0.00;0.62;3.37;2.43;;;28.10;26.30;;;;;;2268984;61;20415;-62
2022/10/11 11:22:54;0.00;0.00;0.62;0.00;0.00;0.62;3.53;2.10;;;28.10;26.30;;;;;;2269398;61;20376;-62
2022/10/11 11:25:58;0.00;0.00;0.62;0.00;0.00;0.62;3.50;2.67;;;28.10;26.20;;;;;;2269866;61;20414;-61
2022/10/11 11:29:24;0.00;0.00;0.62;0.00;0.00;0.62;3.47;2.70;;;28.10;26.20;;;;;;2269585;61;20353;-62
2022/10/11 11:32:24;0.00;0.00;0.62;0.00;0.00;0.62;3.13;2.30;;;28.20;26.20;;;;;;2265567;61;20359;-61